DLH06J EDDF-LOWS
Flight info
| Callsign | DLH06J |
|---|---|
| Flight time | N/A |
| Altitude | 29000 |
| Route | CINDY8S/18 CINDY Z74 HAREM DCT ASLEP DCT TAKUT DCT DINKU L603 OLETU T702 BADIT BADIT2R |
| Aircraft | A319/M-SDE2E3FGIJ1LORWXYZ/HB1 |
Departure
| Time | N/A |
|---|---|
| Airport | Frankfurt Main Airport (EDDF) |
Arrival
| Time | 2026-05-01 11:41 |
|---|---|
| Airport | Salzburg Airport (LOWS) |
| Time | Latitude | Longitude | Altitude | Speed | Heading |
|---|---|---|---|---|---|
| 2026-05-01 11:02 | 49.74798 | 9.18583 | 21969 ft | 369 kts | 133° |
| 2026-05-01 11:02 | 49.74554 | 9.18973 | 22051 ft | 369 kts | 130° |
| 2026-05-01 11:02 | 49.73667 | 9.21046 | 21979 ft | 379 kts | 111° |
| 2026-05-01 11:03 | 49.72519 | 9.24688 | 22817 ft | 377 kts | 121° |
| 2026-05-01 11:03 | 49.70914 | 9.27845 | 23546 ft | 381 kts | 129° |
| 2026-05-01 11:03 | 49.69851 | 9.30077 | 23947 ft | 383 kts | 121° |
| 2026-05-01 11:03 | 49.68538 | 9.33670 | 24522 ft | 385 kts | 116° |
| 2026-05-01 11:04 | 49.67380 | 9.37415 | 25076 ft | 387 kts | 112° |
| 2026-05-01 11:04 | 49.66283 | 9.41225 | 25630 ft | 391 kts | 112° |
| 2026-05-01 11:04 | 49.64801 | 9.46336 | 26293 ft | 397 kts | 112° |
| 2026-05-01 11:04 | 49.64014 | 9.48951 | 26645 ft | 399 kts | 112° |
| 2026-05-01 11:05 | 49.62406 | 9.54074 | 27368 ft | 403 kts | 114° |
| 2026-05-01 11:05 | 49.61558 | 9.56694 | 27726 ft | 405 kts | 114° |
| 2026-05-01 11:05 | 49.60283 | 9.60582 | 28217 ft | 409 kts | 115° |
| 2026-05-01 11:05 | 49.58987 | 9.64504 | 28689 ft | 412 kts | 115° |
| 2026-05-01 11:06 | 49.57680 | 9.68459 | 29177 ft | 416 kts | 114° |
| 2026-05-01 11:06 | 49.56385 | 9.72385 | 29350 ft | 416 kts | 114° |
| 2026-05-01 11:06 | 49.55084 | 9.76334 | 29378 ft | 399 kts | 114° |
| 2026-05-01 11:07 | 49.52585 | 9.83557 | 29377 ft | 377 kts | 122° |
| 2026-05-01 11:07 | 49.50987 | 9.86758 | 29383 ft | 376 kts | 126° |
| 2026-05-01 11:07 | 49.47708 | 9.92993 | 29382 ft | 376 kts | 127° |
| 2026-05-01 11:08 | 49.44416 | 9.99226 | 29383 ft | 376 kts | 126° |
| 2026-05-01 11:09 | 49.39464 | 10.08566 | 29384 ft | 376 kts | 126° |
| 2026-05-01 11:09 | 49.36164 | 10.14798 | 29380 ft | 376 kts | 127° |
| 2026-05-01 11:10 | 49.31213 | 10.24088 | 29383 ft | 375 kts | 127° |
| 2026-05-01 11:10 | 49.27906 | 10.30279 | 29397 ft | 375 kts | 126° |
| 2026-05-01 11:11 | 49.24594 | 10.36471 | 29412 ft | 376 kts | 126° |
| 2026-05-01 11:11 | 49.20962 | 10.42239 | 29412 ft | 378 kts | 133° |
| 2026-05-01 11:12 | 49.17190 | 10.47841 | 29411 ft | 378 kts | 133° |
| 2026-05-01 11:12 | 49.13423 | 10.53435 | 29427 ft | 378 kts | 133° |
| 2026-05-01 11:13 | 49.09661 | 10.59036 | 29420 ft | 378 kts | 133° |
| 2026-05-01 11:13 | 49.05890 | 10.64625 | 29436 ft | 378 kts | 133° |
| 2026-05-01 11:14 | 49.02141 | 10.70155 | 29422 ft | 378 kts | 133° |
| 2026-05-01 11:14 | 48.98356 | 10.75717 | 29418 ft | 378 kts | 133° |
| 2026-05-01 11:15 | 48.94566 | 10.81261 | 29415 ft | 378 kts | 133° |
| 2026-05-01 11:15 | 48.90778 | 10.86806 | 29403 ft | 378 kts | 133° |
| 2026-05-01 11:16 | 48.86997 | 10.92354 | 29397 ft | 378 kts | 133° |
| 2026-05-01 11:16 | 48.83206 | 10.97892 | 29393 ft | 378 kts | 133° |
| 2026-05-01 11:17 | 48.79442 | 11.03362 | 29402 ft | 378 kts | 133° |
| 2026-05-01 11:17 | 48.75653 | 11.08876 | 29395 ft | 377 kts | 133° |
| 2026-05-01 11:18 | 48.71859 | 11.14371 | 29389 ft | 377 kts | 133° |
| 2026-05-01 11:18 | 48.68054 | 11.19845 | 29383 ft | 377 kts | 133° |
| 2026-05-01 11:19 | 48.64299 | 11.25387 | 29391 ft | 375 kts | 127° |
| 2026-05-01 11:19 | 48.61150 | 11.31627 | 29392 ft | 373 kts | 123° |
| 2026-05-01 11:20 | 48.58038 | 11.37903 | 29412 ft | 373 kts | 123° |
| 2026-05-01 11:20 | 48.54920 | 11.44171 | 29405 ft | 373 kts | 123° |
| 2026-05-01 11:21 | 48.51751 | 11.50513 | 29405 ft | 393 kts | 123° |
| 2026-05-01 11:21 | 48.50073 | 11.53876 | 29383 ft | 410 kts | 123° |
| 2026-05-01 11:21 | 48.48341 | 11.57334 | 29369 ft | 414 kts | 123° |
| 2026-05-01 11:22 | 48.46783 | 11.60865 | 29294 ft | 395 kts | 114° |
| 2026-05-01 11:22 | 48.45710 | 11.64601 | 28939 ft | 383 kts | 106° |
| 2026-05-01 11:22 | 48.44810 | 11.68333 | 28268 ft | 377 kts | 106° |
| 2026-05-01 11:22 | 48.43933 | 11.71989 | 27526 ft | 372 kts | 105° |
| 2026-05-01 11:23 | 48.43043 | 11.75722 | 26405 ft | 378 kts | 105° |
| 2026-05-01 11:23 | 48.42154 | 11.79445 | 25546 ft | 377 kts | 106° |
| 2026-05-01 11:23 | 48.41263 | 11.83147 | 24938 ft | 376 kts | 106° |
| 2026-05-01 11:23 | 48.40411 | 11.86662 | 24504 ft | 373 kts | 106° |
| 2026-05-01 11:24 | 48.39523 | 11.90314 | 24045 ft | 370 kts | 106° |
| 2026-05-01 11:24 | 48.38642 | 11.93937 | 23527 ft | 367 kts | 106° |
| 2026-05-01 11:24 | 48.36909 | 12.01044 | 22526 ft | 361 kts | 106° |
| 2026-05-01 11:25 | 48.36046 | 12.04572 | 22042 ft | 358 kts | 107° |
| 2026-05-01 11:25 | 48.34336 | 12.11526 | 21091 ft | 352 kts | 106° |
| 2026-05-01 11:25 | 48.33495 | 12.14957 | 20638 ft | 348 kts | 106° |
| 2026-05-01 11:26 | 48.32662 | 12.18352 | 20183 ft | 345 kts | 107° |
| 2026-05-01 11:26 | 48.31024 | 12.25013 | 19267 ft | 340 kts | 107° |
| 2026-05-01 11:26 | 48.30208 | 12.28330 | 18831 ft | 337 kts | 107° |
| 2026-05-01 11:27 | 48.29408 | 12.31568 | 18377 ft | 334 kts | 107° |
| 2026-05-01 11:27 | 48.28594 | 12.34840 | 17878 ft | 333 kts | 107° |
| 2026-05-01 11:27 | 48.27789 | 12.38077 | 17396 ft | 330 kts | 107° |
| 2026-05-01 11:27 | 48.26990 | 12.41296 | 16976 ft | 327 kts | 107° |
| 2026-05-01 11:28 | 48.26201 | 12.44478 | 16586 ft | 324 kts | 107° |
| 2026-05-01 11:28 | 48.25452 | 12.47492 | 16196 ft | 322 kts | 107° |
| 2026-05-01 11:28 | 48.24671 | 12.50625 | 15810 ft | 319 kts | 107° |
| 2026-05-01 11:29 | 48.23155 | 12.56700 | 15040 ft | 315 kts | 107° |
| 2026-05-01 11:29 | 48.22388 | 12.59769 | 14649 ft | 313 kts | 107° |
| 2026-05-01 11:29 | 48.20862 | 12.65858 | 13815 ft | 311 kts | 107° |
| 2026-05-01 11:30 | 48.19997 | 12.68835 | 13128 ft | 318 kts | 118° |
| 2026-05-01 11:30 | 48.18561 | 12.71302 | 12472 ft | 318 kts | 132° |
| 2026-05-01 11:30 | 48.16990 | 12.73603 | 11786 ft | 314 kts | 132° |
| 2026-05-01 11:30 | 48.15432 | 12.75873 | 11266 ft | 312 kts | 133° |
| 2026-05-01 11:31 | 48.13884 | 12.78122 | 10880 ft | 308 kts | 133° |
| 2026-05-01 11:31 | 48.12355 | 12.80346 | 10469 ft | 305 kts | 133° |
| 2026-05-01 11:31 | 48.10844 | 12.82539 | 9826 ft | 300 kts | 133° |
| 2026-05-01 11:31 | 48.09385 | 12.84651 | 9418 ft | 285 kts | 132° |
| 2026-05-01 11:32 | 48.07979 | 12.86691 | 8855 ft | 279 kts | 133° |
| 2026-05-01 11:32 | 48.06603 | 12.88689 | 8278 ft | 272 kts | 133° |
| 2026-05-01 11:32 | 48.05261 | 12.90639 | 7847 ft | 268 kts | 133° |
| 2026-05-01 11:32 | 48.03924 | 12.92578 | 7437 ft | 267 kts | 134° |
| 2026-05-01 11:33 | 48.02598 | 12.94499 | 7055 ft | 265 kts | 133° |
| 2026-05-01 11:33 | 48.01285 | 12.96402 | 6663 ft | 263 kts | 134° |
| 2026-05-01 11:33 | 47.99975 | 12.98301 | 6185 ft | 262 kts | 134° |
| 2026-05-01 11:33 | 47.98644 | 13.00125 | 5790 ft | 260 kts | 141° |
| 2026-05-01 11:34 | 47.97089 | 13.01401 | 5667 ft | 250 kts | 156° |
| 2026-05-01 11:34 | 47.95466 | 13.02037 | 5572 ft | 234 kts | 165° |
| 2026-05-01 11:34 | 47.93937 | 13.02495 | 5473 ft | 216 kts | 165° |
| 2026-05-01 11:34 | 47.92522 | 13.02925 | 5378 ft | 200 kts | 165° |
| 2026-05-01 11:35 | 47.91199 | 13.03328 | 5325 ft | 187 kts | 164° |
| 2026-05-01 11:35 | 47.89997 | 13.03695 | 5232 ft | 164 kts | 165° |
| 2026-05-01 11:35 | 47.88979 | 13.04005 | 5143 ft | 137 kts | 165° |
| 2026-05-01 11:35 | 47.88071 | 13.04285 | 5085 ft | 131 kts | 164° |
| 2026-05-01 11:36 | 47.87167 | 13.04571 | 4984 ft | 142 kts | 162° |
| 2026-05-01 11:36 | 47.86171 | 13.04885 | 4740 ft | 149 kts | 163° |
| 2026-05-01 11:36 | 47.85137 | 13.05206 | 4501 ft | 153 kts | 163° |
| 2026-05-01 11:36 | 47.84077 | 13.05534 | 4289 ft | 155 kts | 163° |
| 2026-05-01 11:37 | 47.83015 | 13.05855 | 4131 ft | 158 kts | 163° |
| 2026-05-01 11:37 | 47.81920 | 13.06214 | 3843 ft | 158 kts | 162° |
| 2026-05-01 11:37 | 47.80849 | 13.06550 | 3723 ft | 155 kts | 163° |
| 2026-05-01 11:37 | 47.79794 | 13.06877 | 3768 ft | 156 kts | 165° |
| 2026-05-01 11:38 | 47.78716 | 13.07111 | 3673 ft | 155 kts | 169° |
| 2026-05-01 11:38 | 47.77638 | 13.07332 | 3595 ft | 156 kts | 168° |
| 2026-05-01 11:38 | 47.76559 | 13.07572 | 3427 ft | 156 kts | 169° |
| 2026-05-01 11:38 | 47.75496 | 13.07306 | 3118 ft | 160 kts | 209° |
| 2026-05-01 11:39 | 47.74959 | 13.05913 | 2713 ft | 166 kts | 270° |
| 2026-05-01 11:39 | 47.75358 | 13.04412 | 2332 ft | 155 kts | 304° |
| 2026-05-01 11:39 | 47.75978 | 13.03145 | 2081 ft | 150 kts | 317° |
| 2026-05-01 11:39 | 47.76721 | 13.02129 | 1823 ft | 146 kts | 326° |
| 2026-05-01 11:40 | 47.77604 | 13.01466 | 1608 ft | 139 kts | 340° |
| 2026-05-01 11:40 | 47.78465 | 13.00934 | 1440 ft | 131 kts | 340° |
| 2026-05-01 11:40 | 47.79210 | 13.00471 | 1420 ft | 100 kts | 336° |
| 2026-05-01 11:40 | 47.79734 | 13.00138 | 1421 ft | 64 kts | 337° |
| 2026-05-01 11:41 | 47.80081 | 12.99918 | 1421 ft | 33 kts | 336° |
| 2026-05-01 11:41 | 47.80260 | 12.99791 | 1421 ft | 26 kts | 318° |
| 2026-05-01 11:41 | 47.80248 | 12.99620 | 1421 ft | 16 kts | 225° |
| 2026-05-01 11:41 | 47.80142 | 12.99616 | 1420 ft | 17 kts | 158° |
| 2026-05-01 11:42 | 47.80033 | 12.99685 | 1420 ft | 18 kts | 156° |
| 2026-05-01 11:42 | 47.79919 | 12.99759 | 1420 ft | 16 kts | 158° |
| 2026-05-01 11:42 | 47.79811 | 12.99827 | 1420 ft | 17 kts | 157° |
| 2026-05-01 11:42 | 47.79696 | 12.99898 | 1420 ft | 18 kts | 157° |
| 2026-05-01 11:43 | 47.79607 | 12.99954 | 1420 ft | 14 kts | 157° |
| 2026-05-01 11:43 | 47.79525 | 13.00006 | 1420 ft | 12 kts | 157° |
| 2026-05-01 11:43 | 47.79476 | 13.00037 | 1422 ft | 4 kts | 157° |
| 2026-05-01 11:44 | 47.79469 | 13.00041 | 1421 ft | 0 kts | 157° |
| 2026-05-01 11:44 | 47.79451 | 13.00053 | 1420 ft | 7 kts | 157° |
| 2026-05-01 11:44 | 47.79389 | 13.00089 | 1420 ft | 10 kts | 167° |
| 2026-05-01 11:44 | 47.79345 | 13.00031 | 1422 ft | 9 kts | 247° |
| 2026-05-01 11:45 | 47.79311 | 12.99954 | 1422 ft | 10 kts | 214° |
| 2026-05-01 11:45 | 47.79247 | 12.99971 | 1422 ft | 7 kts | 158° |
| 2026-05-01 11:45 | 47.79202 | 12.99998 | 1422 ft | 8 kts | 156° |
| 2026-05-01 11:45 | 47.79153 | 13.00012 | 1422 ft | 7 kts | 217° |
| 2026-05-01 11:46 | 47.79158 | 12.99962 | 1422 ft | 6 kts | 278° |
| 2026-05-01 11:46 | 47.79165 | 12.99914 | 1422 ft | 5 kts | 282° |
| 2026-05-01 11:46 | 47.79169 | 12.99885 | 1422 ft | 0 kts | 282° |